Horn Lake, Mississippi
Current Conditions -  °F | °C
As of 1:54 AM on Sunday 26 Oct 2014 (Local Time) from KMEM Reporting Station
Clear Clear  
Wind Chill: 65°   Ceiling: Unl
Heat Index: 65°   Visibility: 9mi
Dew Point: 62°   Wind: 3mph
Humidity: 90%   Direction: 210°SSW
Pressure: 30.01"   Gusts: NA
Location:  34.96°N, 90.05°W
Report Text: KMEM 260654Z 21003KT 9SM CLR 18/17 A3001 RMK AO2 SLP159 T01830167 $
Loading
Personal Weather Stations






























Interactive Weather Map
Tropical Storm Tracking
New forecast layout! Learn more

10-Day Weather Forecast

Advertisements
Track Severe Weather on mobile